Tiempo atmosférico en la estación meteorológica de Bielsa, Huesca (990 m.)



Fecha
DESCASC
Temp. máxima en grados centígrados (hora)
DESCASC
Temp. mínima en grados centígrados (hora)
DESCASC
Temp. media en grados centígrados
DESCASC
Racha de viento máxima en m/sg (hora)
DESCASC
Velocidad máxima media en intervalos de 10 minutos(hora)
DESCASC
Precipitaciones diarias en mm
DESCASC
Precipitaciones de 00:00 a 06:00 en mm
DESCASC
Precipitaciones de 06:00 a 12:00 en mm
DESCASC
Precipitaciones de 12:00 a 18:00 en mm
DESCASC
Precipitaciones de 18:00 a 24:00 en mm
DESCASC
27-01-2020 7.6 (16:00) -1.2 (05:40) 3.2 12.22 (16:50) 5.83 (16:30) 0.8 0 0 0.6 0.2
26-01-2020 10.1 (14:00) 0.9 (06:50) 5.5 7.5 (02:10) 3.61 (01:10) 11.4 8.4 3 0 0
25-01-2020 6.5 (14:10) 1.7 (00:00) 4.1 4.72 (14:50) 1.67 (14:00) 1.4 0.6 0 0 0.8
24-01-2020 9 (13:00) 0.6 (00:00) 4.8 6.11 (15:30) 2.22 (10:40) 0 0 0 0 0
23-01-2020 3.6 (11:10) 0.3 (00:00) 1.9 7.78 (10:00) 4.72 (10:00) 31.2 8.4 16.6 6.2 0
22-01-2020 7.6 (14:40) 0.4 (00:00) 4 8.89 (18:30) 3.89 (04:50) 35.4 9.2 0.2 7.8 18.2
21-01-2020 9.1 (16:50) -0.3 (00:00) 4.4 8.89 (19:50) 4.17 (07:10) 0 0 0 0 0
20-01-2020 8.1 (14:20) -1.5 (-00:0) 3.3 -- (--) -- (--) 0 0 0 0 0
19-01-2020 6.4 (12:20) 0.6 (00:00) 3.5 20.83 (17:00) 8.89 (15:20) 0.8 0.8 0 0 0
18-01-2020 8.7 (14:00) -2.6 (-00:0) 3 8.06 (13:40) 3.33 (13:30) 0 0 0 0 0
17-01-2020 7.2 (01:00) -1.1 (-00:0) 3 8.89 (15:20) 3.06 (15:20) 4.8 1.6 1.6 1.6 0
16-01-2020 11.6 (13:50) -2 (-00:0) 4.8 5.83 (07:20) 2.5 (16:20) 0 0 0 0 0
15-01-2020 10.8 (14:10) -3.6 (-00:0) 3.6 4.72 (11:50) 2.22 (16:20) 0 0 0 0 0
14-01-2020 10.7 (13:40) -2.7 (-00:0) 4 6.11 (13:50) 2.5 (12:30) 0 0 0 0 0
13-01-2020 11.1 (14:20) -3.5 (-00:0) 3.8 4.72 (13:50) 1.94 (02:40) 0 0 0 0 0
12-01-2020 9.7 (13:20) -4 (-00:0) 2.8 4.72 (09:40) 1.94 (03:20) 0 0 0 0 0
11-01-2020 11 (13:20) -2.9 (-00:0) 4 9.72 (04:20) 5 (04:20) 0 0 0 0 0
10-01-2020 9.8 (13:10) 2.6 (00:00) 6.2 12.22 (10:50) 5.83 (11:20) 1 1 0 0 0
09-01-2020 12.5 (14:10) -1 (-00:0) 5.8 9.72 (15:20) 3.33 (15:20) 0 0 0 0 0
08-01-2020 13.6 (13:40) 0.2 (00:00) 6.9 9.17 (02:40) 4.72 (03:00) 0 0 0 0 0
07-01-2020 12.2 (13:40) -1.5 (-00:0) 5.3 8.33 (18:20) 5.28 (18:10) 0 0 0 0 0
06-01-2020 10.9 (13:00) -2.2 (-00:0) 4.3 6.39 (12:20) 1.67 (12:20) 0 0 0 0 0
05-01-2020 15.3 (13:00) 0.3 (00:00) 7.8 10.83 (07:30) 5.83 (07:40) 0 0 0 0 0
04-01-2020 12.5 (14:00) 0.2 (00:00) 6.4 10 (14:00) 5 (09:50) 0 0 0 0 0
03-01-2020 10.7 (17:10) -0.3 (00:00) 5.2 10 (20:20) 5 (17:20) 0 0 0 0 0
02-01-2020 10.4 (13:20) -1.7 (-00:0) 4.3 4.44 (05:50) 1.67 (04:50) 0 0 0 0 0
01-01-2020 10.2 (13:00) -1.8 (-00:0) 4.2 4.72 (07:50) 1.94 (14:20) 0 0 0 0 0
31-12-2019 11 (13:10) -0.9 (-00:0) 5.1 4.44 (08:00) 1.39 (13:00) 0 0 0 0 0
30-12-2019 9.4 (13:40) -2.1 (-00:0) 3.6 4.72 (02:00) 1.67 (12:40) 0 0 0 0 0

Gráficas

Temp. máximas Temp. mínimas Temp. medias Precipitaciones Rachas de viento máximas Velocidades máximas media en intervalos de 10 minutos

Datos horarios

Fecha y hora oficial Temperatura (ºC) Velocidad del viento (km/h) Dirección del viento Racha (km/h) Dirección de racha Precipitación (mm) Presión (hPa) Tendencia (hPa) Humedad (%)
2020-01-28 23:00:00 0.3 3 Oeste 15 Noroeste 0 905.8 0.6 94
2020-01-28 22:00:00 0.4 4 Noroeste 16 Nordeste 0 905.5 0.8 96
2020-01-28 21:00:00 1 5 Noroeste 15 Norte 0 905.6 1.6 94
2020-01-28 20:00:00 1.7 3 Noroeste 17 Nordeste 0 905.2 1.5 92
2020-01-28 19:00:00 2.8 5 Noroeste 15 Nordeste 0 904.7 1.3 89
2020-01-28 18:00:00 3.9 6 Noroeste 18 Noroeste 0 904 1 87
2020-01-28 17:00:00 4.8 6 Noroeste 12 Noroeste 0 903.7 0.3 87
2020-01-28 16:00:00 6 6 Noroeste 18 Nordeste 0 903.4 -0.7 83
2020-01-28 15:00:00 7.3 3 Noroeste 14 Nordeste 0 903 -1.4 83
2020-01-28 14:00:00 10.4 3 Sur 8 Sur 0 903.4 -1 73
2020-01-28 13:00:00 9.2 4 Sudeste 14 Sudoeste 0 904.1 -0.2 79
2020-01-28 12:00:00 8.4 3 Oeste 15 Este 0 904.4 0.7 83
2020-01-28 11:00:00 6.4 5 Noroeste 14 Nordeste 0 904.4 1 84
2020-01-28 10:00:00 3.7 0 Calma 14 Este 0 904.3 1.1 97
2020-01-28 09:00:00 3.3 2 Este 14 Nordeste 0 903.7 0.6 98
2020-01-28 08:00:00 3.3 0 Calma 14 Nordeste 0 903.4 0.3 98
2020-01-28 07:00:00 3.2 0 Calma 12 Nordeste 0 903.2 -0.2 98
2020-01-28 06:00:00 3.2 0 Calma 16 Este 0 903.1 -0.4 98
2020-01-28 05:00:00 3.2 3 Norte 13 Nordeste 0 903.1 -0.6 98
2020-01-28 04:00:00 3.1 3 Sudeste 14 Este 0.2 903.4 -0.5 98
2020-01-28 03:00:00 3 0 Calma 13 Nordeste 0.2 903.5 -0.5 97
2020-01-28 02:00:00 2.8 0 Calma 14 Nordeste 0 903.7 -0.3 97
2020-01-28 01:00:00 2.6 2 Nordeste 15 Nordeste 0 903.9 -0.4 97
2020-01-28 00:00:00 2.4 0 Calma 14 Nordeste 0 904 -0.2 96
2020-01-27 23:00:00 3.1 4 Norte 20 Norte 0 904 -0.1 97
2020-01-27 22:00:00 3.1 2 Nordeste 15 Nordeste 0 904.3 0.4 96
2020-01-27 21:00:00 3.5 0 Calma 15 Nordeste 0 904.2 0.7 95
2020-01-27 20:00:00 3.7 4 Norte 16 Norte 0 904.1 0.6 92
2020-01-27 19:00:00 4.2 3 Oeste 27 Sur 0.2 903.9 0.6 90
2020-01-27 18:00:00 5 10 Sudeste 41 Este 0.4 903.5 -0.1 82
2020-01-27 17:00:00 5.8 14 Este 44 Este 0.2 903.5 -1.3 75
2020-01-27 16:00:00 7.5 8 Sudeste 20 Sur 0 903.3 -2.3 62
2020-01-27 15:00:00 7.4 6 Sudeste 15 Sudeste 0 903.6 -2.8 64
2020-01-27 14:00:00 7.1 5 Sudeste 14 Sur 0 904.8 -1.6 65
2020-01-27 13:00:00 6.4 0 Calma 16 Nordeste 0 905.6 -0.9 64
2020-01-27 12:00:00 4.3 3 Noroeste 16 Noroeste 0 906.4 0 77
2020-01-27 11:00:00 2.7 4 Noroeste 18 Norte 0 906.4 -0.2 87
2020-01-27 10:00:00 0.5 3 Noroeste 15 Nordeste 0 906.5 0.1 98
2020-01-27 09:00:00 -0.6 3 Noroeste 19 Norte 0 906.4 -0.4 98
2020-01-27 08:00:00 -1.2 0 Calma 15 Este 0 906.6 -0.5 98
2020-01-27 07:00:00 -1.1 2 Norte 15 Nordeste 0 906.4 -1 98
2020-01-27 06:00:00 -1 3 Noroeste 15 Oeste 0 906.8 -0.8 98
2020-01-27 05:00:00 -0.8 3 Norte 14 Nordeste 0 907.1 -0.5 98
2020-01-27 04:00:00 -0.5 2 Este 14 Nordeste 0 907.4 -0.5 98
2020-01-27 03:00:00 -0.5 3 Noroeste 14 Nordeste 0 907.6 -0.3 98
2020-01-27 02:00:00 0 2 Norte 15 Nordeste 0 907.6 -0.4 97
2020-01-27 01:00:00 0.6 3 Noroeste 15 Nordeste 0 907.9 0.4 96
2020-01-27 00:00:00 1.4 0 Calma 17 Norte 0 907.9 0.5 93
2020-01-26 23:00:00 2.4 3 Noroeste 12 Norte 0 908 1 93
2020-01-26 22:00:00 2.9 5 Noroeste 16 Oeste 0 907.5 1.2 90
2020-01-26 21:00:00 3.6 6 Norte 11 Norte 0 907.4 1.8 89
2020-01-26 20:00:00 4.1 5 Noroeste 15 Norte 0 907 1.7 86
2020-01-26 19:00:00 4.8 5 Norte 13 Norte 0 906.3 1.5 85
2020-01-26 18:00:00 5.6 6 Noroeste 10 Norte 0 905.6 1 86
2020-01-26 17:00:00 6.2 3 Noroeste 18 Sudeste 0 905.3 0.4 84
2020-01-26 16:00:00 6.9 8 Sudeste 21 Este 0 904.8 -0.2 77
2020-01-26 15:00:00 8 5 Sudeste 24 Sudeste 0 904.6 -1 74
2020-01-26 14:00:00 10 8 Sudeste 21 Este 0 904.9 -0.7 68
2020-01-26 13:00:00 9.6 5 Sudeste 16 Sudeste 0 905 0 69
2020-01-26 12:00:00 8.1 2 Sudoeste 12 Este 0 905.6 0.7 76
2020-01-26 11:00:00 4.6 3 Oeste 13 Nordeste 0 905.6 1.2 86
2020-01-26 10:00:00 2.4 6 Noroeste 15 Nordeste 0 905 1.1 97
2020-01-26 09:00:00 1.1 0 Calma 14 Nordeste 0.2 904.9 1.2 98
2020-01-26 08:00:00 0.9 0 Calma 14 Nordeste 1.4 904.4 0.8 98
2020-01-26 07:00:00 0.9 2 Noroeste 15 Este 1.4 903.9 0.1 98
2020-01-26 06:00:00 1.1 3 Noroeste 5 Noroeste 1.4 903.7 -0.3 98
2020-01-26 05:00:00 1.1 0 Calma 14 Nordeste 0.6 903.6 -0.1 97
2020-01-26 04:00:00 1.3 0 Calma 15 Nordeste 2.4 903.8 -0.3 95
2020-01-26 03:00:00 2.2 2 Noroeste 27 Norte 2.6 904 -0.4 95
2020-01-26 02:00:00 2.8 10 Norte 25 Noroeste 0.2 903.7 -0.7 92
2020-01-26 01:00:00 2.9 9 Noroeste 19 Noroeste 1.2 904.1 -0.3 94
2020-01-26 00:00:00 2.9 3 Noroeste 15 Norte 0.8 904.4 0 97
2020-01-25 23:00:00 2.8 2 Este 14 Nordeste 0 904.4 0.3 97
2020-01-25 22:00:00 2.7 0 Calma 14 Nordeste 0 904.4 0.4 97
2020-01-25 21:00:00 2.9 2 Noroeste 14 Nordeste 0 904.4 0.9 97
2020-01-25 20:00:00 3.3 0 Calma 16 Nordeste 0 904.1 0.6 95
2020-01-25 19:00:00 3.9 2 Norte 14 Nordeste 0 904 0.4 94
2020-01-25 18:00:00 4.5 2 Noroeste 9 Este 0 903.5 -0.4 92
2020-01-25 17:00:00 5.3 5 Este 14 Sur 0 903.5 -1 85
2020-01-25 16:00:00 6 3 Sudeste 17 Sudeste 0 903.6 -1.8 78
2020-01-25 15:00:00 5.9 4 Sudeste 17 Sur 0 903.9 -2.1 80
2020-01-25 14:00:00 6.4 6 Sudeste 17 Este 0 904.5 -1.4 76
2020-01-25 13:00:00 4.6 2 Este 13 Nordeste 0 905.4 -0.3 95
2020-01-25 12:00:00 3.9 0 Calma 14 Nordeste 0 906 0.6 97
2020-01-25 11:00:00 3.2 0 Calma 13 Nordeste 0 905.9 0.8 97
2020-01-25 10:00:00 2.3 2 Noroeste 16 Nordeste 0 905.7 0.7 98
2020-01-25 09:00:00 1.9 0 Calma 14 Nordeste 0 905.4 0.4 98
2020-01-25 08:00:00 1.8 2 Noroeste 16 Este 0 905.1 -0.2 98
2020-01-25 07:00:00 1.9 0 Calma 13 Nordeste 0 905 -0.7 98
2020-01-25 06:00:00 2 0 Calma 15 Norte 0 905 -1.1 97
2020-01-25 05:00:00 1.9 0 Calma 12 Norte 0 905.3 -1.3 97
2020-01-25 04:00:00 2 0 Calma 15 Nordeste 0.2 905.7 -1.1 97
2020-01-25 03:00:00 2.1 3 Noroeste 14 Nordeste 0 906.1 -0.9 97
2020-01-25 02:00:00 2 0 Calma 15 Noroeste 0.4 906.6 -0.6 97
2020-01-25 01:00:00 1.9 0 Calma 14 Nordeste 0 906.8 -0.4 96
2020-01-25 00:00:00 1.9 2 Noroeste 17 Norte 0 907 0.2 96
2020-01-24 23:00:00 1.6 2 Noroeste 15 Nordeste 0 907.2 0.7 97
2020-01-24 22:00:00 1.5 2 Noroeste 15 Norte 0 907.2 0.9 96
2020-01-24 21:00:00 1.6 3 Noroeste 17 Nordeste 0 906.8 1 96
2020-01-24 20:00:00 1.7 4 Noroeste 16 Nordeste 0 906.5 0.9 96
2020-01-24 19:00:00 2.4 3 Noroeste 9 Noroeste 0 906.3 0.5 93
2020-01-24 18:00:00 3.9 3 Norte 13 Nordeste 0 905.8 0 88
2020-01-24 17:00:00 6 2 Noroeste 22 Norte 0 905.6 -0.6 82
2020-01-24 16:00:00 6.4 5 Norte 22 Norte 0 905.8 -1 72
2020-01-24 15:00:00 6.8 5 Norte 19 Nordeste 0 905.8 -1.6 73
2020-01-24 14:00:00 6.9 4 Noroeste 17 Oeste 0 906.2 -1.3 79
2020-01-24 13:00:00 8.8 2 Sudoeste 12 Sudoeste 0 906.8 -0.6 71
2020-01-24 12:00:00 6.3 3 Noroeste 13 Nordeste 0 907.4 -0.1 73
2020-01-24 11:00:00 4.4 5 Noroeste 15 Norte 0 907.5 0.1 84
2020-01-24 10:00:00 2.6 7 Norte 14 Norte 0 907.4 0.2 98
2020-01-24 09:00:00 1.1 2 Norte 16 Nordeste 0 907.5 0.3 98
2020-01-24 08:00:00 0.8 0 Calma 14 Nordeste 0 907.4 0.2 98
2020-01-24 07:00:00 0.6 0 Calma 14 Nordeste 0 907.2 -0.5 98
2020-01-24 06:00:00 0.7 2 Noroeste 15 Nordeste 0 907.2 -0.8 98
2020-01-24 05:00:00 0.9 0 Calma 14 Nordeste 0 907.2 -0.9 98
2020-01-24 04:00:00 1 0 Calma 16 Este 0 907.7 -0.8 98
2020-01-24 03:00:00 1 0 Calma 14 Nordeste 0 908 -0.7 98
2020-01-24 02:00:00 1 0 Calma 15 Nordeste 0 908.1 -0.5 98
2020-01-24 01:00:00 0.8 0 Calma 14 Nordeste 0 908.5 0.2 98
2020-01-24 00:00:00 0.9 0 Calma 15 Nordeste 0 908.7 0.7 98
2020-01-23 23:00:00 0.9 0 Calma 16 Nordeste 0 908.6 1.2 98
2020-01-23 22:00:00 0.9 3 Sudeste 15 Nordeste 0 908.3 1.4 98
2020-01-23 21:00:00 0.8 3 Norte 14 Este 0 908 1.7 98
2020-01-23 20:00:00 0.8 3 Norte 14 Nordeste 0 907.4 1.3 97
2020-01-23 19:00:00 0.7 3 Noroeste 14 Nordeste 0 906.9 1.4 96
2020-01-23 18:00:00 1.6 0 Calma 14 Nordeste 0 906.3 1.2 96
2020-01-23 17:00:00 2.4 7 Sudeste 24 Este 0.2 906.1 1.2 91
2020-01-23 16:00:00 2.7 6 Sudeste 22 Este 0.6 905.5 0.7 90
2020-01-23 15:00:00 2.8 5 Sudeste 22 Sur 1.2 905.1 0.1 90
2020-01-23 14:00:00 3.2 4 Sudeste 18 Este 1.8 904.9 0.2 91
2020-01-23 13:00:00 3.6 5 Sudeste 19 Este 2.4 904.8 0.3 95
2020-01-23 12:00:00 2.8 0 Calma 15 Nordeste 1.6 905 0.2 95
2020-01-23 11:00:00 3.5 4 Sudeste 25 Norte 1.8 904.7 0.3 92
2020-01-23 10:00:00 2.4 17 Norte 28 Norte 2.2 904.5 -0.1 97
2020-01-23 09:00:00 0.9 2 Sudeste 17 Este 1.6 904.8 1.1 98
2020-01-23 08:00:00 1.3 6 Norte 26 Norte 4.8 904.4 0.5 98
2020-01-23 07:00:00 0.7 4 Noroeste 17 Nordeste 4.6 904.6 0.1 98
2020-01-23 06:00:00 0.8 3 Noroeste 20 Nordeste 1.8 903.7 -2.1 98
2020-01-23 05:00:00 0.6 3 Este 17 Este 2.2 903.9 -2.3 98
2020-01-23 04:00:00 0.6 4 Sudeste 20 Este 1.8 904.5 -2.3 98
2020-01-23 03:00:00 0.8 4 Sudeste 22 Norte 1.6 905.8 -0.7 97
2020-01-23 02:00:00 0.6 9 Norte 19 Norte 0.8 906.2 0.1 98
2020-01-23 01:00:00 0.3 4 Noroeste 14 Este 0.2 906.8 1.8 98
2020-01-23 00:00:00 0.4 3 Sudeste 14 Nordeste 1.4 906.5 1.6 98
2020-01-22 23:00:00 0.5 3 Sudeste 21 Este 2 906.1 1.1 97
2020-01-22 22:00:00 0.6 3 Noroeste 18 Este 2.8 905 0 97
2020-01-22 21:00:00 1.4 3 Este 24 Este 5.6 904.9 -0.6 97
2020-01-22 20:00:00 1.9 8 Nordeste 26 Norte 2.6 905 -0.6 95
2020-01-22 19:00:00 1.9 9 Norte 32 Norte 3.8 905 -0.8 95
2020-01-22 18:00:00 2.4 8 Norte 27 Norte 4.6 905.5 0.1 93
2020-01-22 17:00:00 3.9 6 Norte 18 Norte 3.2 905.6 -0.6 88
2020-01-22 16:00:00 6 3 Noroeste 15 Este 0 905.8 -1.1 89
2020-01-22 15:00:00 7.1 2 Oeste 15 Nordeste 0 905.4 -2.2 88
2020-01-22 14:00:00 7.2 2 Sur 17 Nordeste 0 906.2 -2.1 88
2020-01-22 13:00:00 5.8 4 Sudoeste 14 Este 0 906.9 -0.7 88
2020-01-22 12:00:00 5.9 5 Noroeste 19 Noroeste 0 907.6 0.1 84
2020-01-22 11:00:00 3.3 2 Oeste 14 Nordeste 0 908.3 1.5 93
2020-01-22 10:00:00 2 3 Noroeste 18 Nordeste 0 907.6 0.8 96
2020-01-22 09:00:00 1.5 3 Sudeste 18 Este 0 907.5 0.4 96
2020-01-22 08:00:00 1.5 3 Noroeste 23 Norte 0.2 906.8 -1 95
2020-01-22 07:00:00 1.1 5 Noroeste 19 Nordeste 0 906.8 -2.1 97
2020-01-22 06:00:00 1.2 3 Norte 23 Norte 0.4 907.1 -2.4 96
2020-01-22 05:00:00 1.9 8 Nordeste 28 Norte 2.6 907.8 -0.5 93
2020-01-22 04:00:00 0.9 7 Norte 16 Norte 2 908.9 1 96
2020-01-22 03:00:00 2.1 4 Sudeste 22 Sudeste 4.2 909.5 1.4 90
2020-01-22 02:00:00 2.6 4 Noroeste 17 Este 0 908.3 0.1 86
2020-01-22 01:00:00 2.4 2 Norte 14 Nordeste 0 907.9 0.1 81
2020-01-22 00:00:00 2.2 3 Oeste 22 Norte 0 908.1 1.1 79
2020-01-21 23:00:00 2.1 6 Noroeste 16 Nordeste 0 908.2 1.3 81
2020-01-21 22:00:00 2.6 2 Nordeste 17 Norte 0 907.8 0.5 80
2020-01-21 21:00:00 4.6 4 Noroeste 22 Este 0 907 0 68
2020-01-21 20:00:00 6.3 9 Norte 32 Norte 0 906.9 -0.1 60
2020-01-21 19:00:00 5.2 5 Noroeste 20 Nordeste 0 907.3 -0.1 69
2020-01-21 18:00:00 7.5 6 Noroeste 28 Norte 0 907 -0.7 59
2020-01-21 17:00:00 8.9 13 Noroeste 27 Noroeste 0 907 -1.2 46
2020-01-21 16:00:00 7.8 2 Nordeste 16 Nordeste 0 907.4 -0.7 71
2020-01-21 15:00:00 7.7 5 Noroeste 15 Este 0 907.7 -1 66
2020-01-21 14:00:00 7.1 7 Sudeste 23 Este 0 908.2 -0.9 67
2020-01-21 13:00:00 7.9 4 Noroeste 26 Norte 0 908.1 -1.2 62
2020-01-21 12:00:00 6.6 7 Noroeste 21 Norte 0 908.7 -0.7 66
2020-01-21 11:00:00 5.9 10 Norte 24 Noroeste 0 909.1 -0.5 68
2020-01-21 10:00:00 3.9 3 Noroeste 24 Norte 0 909.3 -0.4 77
2020-01-21 09:00:00 3.5 8 Norte 31 Norte 0 909.4 -0.4 77
2020-01-21 08:00:00 3.2 7 Norte 30 Nordeste 0 909.6 -0.5 78
2020-01-21 07:00:00 3.4 12 Norte 28 Norte 0 909.7 -0.3 74
2020-01-21 06:00:00 3.4 10 Norte 27 Norte 0 909.8 -0.7 59
2020-01-21 05:00:00 1.8 6 Noroeste 21 Norte 0 910.1 -1 65
2020-01-21 04:00:00 1.5 6 Noroeste 18 Norte 0 910 -1.7 64
2020-01-21 03:00:00 1.4 3 Noroeste 20 Noroeste 0 910.5 -1.5 62
2020-01-21 02:00:00 0.8 6 Noroeste 23 Nordeste 0 911.1 -0.5 64
2020-01-21 01:00:00 0.6 8 Noroeste 21 Norte 0 911.7 0.2 63
2020-01-21 00:00:00 -0.2 5 Noroeste 16 Norte 0 912 0.5 67
2020-01-20 23:00:00 0.7 3 Noroeste 20 Norte 0 911.6 0.1 61
2020-01-20 22:00:00 1.3 7 Noroeste 27 Nordeste 0 911.5 0.2 57
2020-01-20 21:00:00 2.2 9 Norte 26 Norte 0 911.5 0.9 49
2020-01-20 20:00:00 1.6 8 Noroeste 24 Norte 0 911.5 1.7 55
2020-01-20 19:00:00 3.1 10 Norte 25 Norte 0 911.3 1.9 45
2020-01-20 18:00:00 4.1 7 Noroeste 34 Noroeste 0 910.6 1.1 40
2020-01-20 17:00:00 5.9 14 Noroeste 32 Norte 0 909.8 0.1 32
2020-01-20 16:00:00 6.8 18 Noroeste 37 Noroeste 0 909.4 -1.2 30
2020-01-20 15:00:00 5.8 2 Norte 14 Nordeste 0 909.5 -2 38
2020-01-20 14:00:00 6.6 2 Este 21 Noroeste 0 909.7 -2.1 22
2020-01-20 13:00:00 5.4 11 Noroeste 26 Noroeste 0 910.6 -0.7 16
2020-01-20 12:00:00 4.2 11 Norte 34 Noroeste 0 911.5 0.7 22
2020-01-20 11:00:00 2.1 17 Noroeste 43 Noroeste 0 911.8 1.3 28
2020-01-20 10:00:00 0.5 16 Noroeste -- -- 0 911.3 0.9 29
2020-01-20 09:00:00 -1.3 15 Noroeste 37 Norte 0 910.8 0.5 33
2020-01-20 08:00:00 -1.1 14 Norte 37 Norte 0 910.5 -0.2 31
2020-01-20 07:00:00 -0.9 15 Noroeste 33 Noroeste 0 910.4 -0.9 33
2020-01-20 06:00:00 0.7 18 Noroeste 68 Noroeste 0 910.3 -1.6 26
2020-01-20 05:00:00 0.3 26 Noroeste -- -- 0 910.7 -1.6 30
2020-01-20 04:00:00 0.4 -- -- -- -- 0 911.3 -1.4 31
2020-01-20 03:00:00 0.5 24 Noroeste -- -- 0 911.9 -0.9 32
2020-01-20 02:00:00 0.5 21 Noroeste -- -- 0 912.3 -0.4 34
2020-01-20 01:00:00 0.4 -- -- -- -- 0 912.7 0 40
2020-01-20 00:00:00 0.7 24 Noroeste 56 Noroeste 0 912.8 0.1 43
2020-01-19 23:00:00 0.8 23 Noroeste 63 Noroeste 0 912.7 0.8 44
2020-01-19 22:00:00 1 24 Noroeste -- -- 0 912.7 1.6 42
2020-01-19 21:00:00 0.8 28 Noroeste 56 Noroeste 0 912.7 2.6 40
2020-01-19 20:00:00 0.9 26 Noroeste 63 Noroeste 0 911.9 2.3 41
2020-01-19 19:00:00 1.4 26 Noroeste 62 Noroeste 0 911.1 2.2 35
2020-01-19 18:00:00 2.1 27 Noroeste -- -- 0 910.1 1.8 33
2020-01-19 17:00:00 2.7 30 Noroeste 75 Noroeste 0 909.6 1.4 30
2020-01-19 16:00:00 3.6 30 Noroeste 70 Oeste 0 908.9 0.8 25
2020-01-19 15:00:00 4.3 27 Noroeste 65 Noroeste 0 908.3 -0.4 27
2020-01-19 14:00:00 5.9 23 Noroeste 60 Noroeste 0 908.2 -0.1 26
2020-01-19 13:00:00 6.2 26 Noroeste 66 Noroeste 0 908.1 0.6 30
2020-01-19 12:00:00 6.1 26 Noroeste 59 Noroeste 0 908.7 1.6 31
2020-01-19 11:00:00 5.3 29 Noroeste 65 Noroeste 0 908.3 2.9 37
2020-01-19 10:00:00 4.2 24 Noroeste 56 Noroeste 0 907.5 2.7 42
2020-01-19 09:00:00 4.5 26 Noroeste 60 Noroeste 0 907.1 2.5 41
2020-01-19 08:00:00 4.4 19 Noroeste 42 Noroeste 0 905.4 1.3 69
2020-01-19 07:00:00 3.5 20 Noroeste 36 Noroeste 0 904.8 0.6 80
2020-01-19 06:00:00 3.9 18 Noroeste 39 Noroeste 0 904.6 0.5 79
2020-01-19 05:00:00 3.4 16 Noroeste 33 Noroeste 0 904.1 -0.1 86
2020-01-19 04:00:00 3 17 Noroeste 29 Norte 0.2 904.2 -0.5 88
2020-01-19 03:00:00 2 4 Noroeste 27 Norte 0 904.1 -0.8 91
2020-01-19 02:00:00 1.9 8 Norte 32 Norte 0.6 904.2 -0.8 92
2020-01-19 01:00:00 2.1 9 Norte 27 Norte 0 904.7 -1 89
2020-01-19 00:00:00 2 0 Calma 16 Norte 0 904.9 -1.1 85
2020-01-18 23:00:00 2.4 4 Noroeste 20 Nordeste 0 905 -1.5 74
2020-01-18 22:00:00 2.1 4 Noroeste 19 Nordeste 0 905.7 -1.1 73
2020-01-18 21:00:00 2.5 6 Noroeste 18 Noroeste 0 906 -0.7 69
2020-01-18 20:00:00 2.2 4 Noroeste 18 Noroeste 0 906.5 -0.4 75
2020-01-18 19:00:00 3 6 Noroeste 18 Norte 0 906.8 -0.7 69
2020-01-18 18:00:00 3.8 2 Norte 17 Nordeste 0 906.7 -1.6 70
2020-01-18 17:00:00 5.1 5 Noroeste 20 Este 0 906.9 -2.5 60
2020-01-18 16:00:00 6.5 6 Sudeste 21 Sudeste 0 907.5 -3.3 47
2020-01-18 15:00:00 6.1 6 Sudeste 26 Sur 0 908.3 -4.1 48
2020-01-18 14:00:00 8.6 9 Sudeste 29 Sur 0 909.4 -3.5 39
2020-01-18 13:00:00 7.7 2 Sur 14 Nordeste 0 910.8 -2.3 54
2020-01-18 12:00:00 4.5 3 Este 16 Nordeste 0 912.4 -0.9 66
2020-01-18 11:00:00 3.5 2 Oeste 19 Este 0 912.9 -1 72
2020-01-18 10:00:00 0 2 Noroeste 14 Nordeste 0 913.1 -0.5 88
2020-01-18 09:00:00 -0.4 2 Nordeste 19 Norte 0 913.3 0 89
2020-01-18 08:00:00 -0.5 2 Noroeste 17 Nordeste 0 913.9 0.5 90
2020-01-18 07:00:00 -0.5 2 Noroeste 19 Nordeste 0 913.6 -0.1 87
2020-01-18 06:00:00 -0.8 5 Norte 17 Norte 0 913.3 -0.3 87
2020-01-18 05:00:00 -1.7 4 Sudeste 22 Este 0 913.4 -0.1 92
2020-01-18 04:00:00 -2.3 2 Noroeste 16 Nordeste 0 913.7 0 94
2020-01-18 03:00:00 -2.4 3 Noroeste 15 Nordeste 0 913.6 -0.6 94
2020-01-18 02:00:00 -2.4 3 Noroeste 15 Nordeste 0 913.5 -0.5 93
2020-01-18 01:00:00 -1.7 4 Noroeste 18 Nordeste 0 913.7 -0.4 91
2020-01-18 00:00:00 -1.1 4 Noroeste 16 Nordeste 0 914.2 0.1 92
2020-01-17 23:00:00 -0.3 0 Calma 20 Norte 0 914 0.3 86
2020-01-17 22:00:00 1.4 6 Noroeste 22 Norte 0 914.1 0.6 73
2020-01-17 21:00:00 0.9 6 Norte 19 Norte 0 914.1 1.4 83
2020-01-17 20:00:00 1.5 7 Noroeste 25 Norte 0 913.7 1.9 82
2020-01-17 19:00:00 0.4 3 Norte 12 Nordeste 0 913.5 2.6 96
2020-01-17 18:00:00 1.7 3 Norte 6 Norte 0 912.7 2.5 94
2020-01-17 17:00:00 3.3 2 Sudeste 14 Nordeste 0 911.8 1.5 91
2020-01-17 16:00:00 4.9 4 Noroeste 32 Noroeste 1 910.9 0 88
2020-01-17 15:00:00 6.5 2 Nordeste 13 Sudeste 0 910.2 -0.7 85
2020-01-17 14:00:00 6 5 Este 17 Este 0.4 910.3 -0.3 88
2020-01-17 13:00:00 6.2 4 Norte 18 Sur 0.2 910.9 0.4 90
2020-01-17 12:00:00 5.6 8 Sudeste 19 Sudeste 1.4 910.9 0.2 93
2020-01-17 11:00:00 5.2 4 Sudeste 19 Sur 0 910.6 0.4 97
2020-01-17 10:00:00 4 2 Sur 14 Nordeste 0 910.5 0.4 97
2020-01-17 09:00:00 3.4 2 Norte 13 Nordeste 0 910.7 0.7 97
2020-01-17 08:00:00 3.4 0 Calma 8 Este 0 910.2 -0.2 96
2020-01-17 07:00:00 4.7 3 Sudeste 10 Sudoeste 0.2 910.1 -0.6 96
2020-01-17 06:00:00 4.7 4 Sur 21 Este 0.2 910 -0.7 96
2020-01-17 05:00:00 4.8 3 Noroeste 22 Nordeste 1.2 910.4 -0.4 95
2020-01-17 04:00:00 5.2 2 Norte 13 Nordeste 0.2 910.7 -0.2 90
2020-01-17 03:00:00 6.3 5 Este 18 Sur 0 910.7 -0.4 77
2020-01-17 02:00:00 6.7 4 Sudeste 15 Sudeste 0 910.8 -0.4 75
2020-01-17 01:00:00 7.2 9 Sudeste 23 Sudeste 0 910.9 0.1 70
2020-01-17 00:00:00 6.4 4 Sudeste 14 Este 0 911.1 0.3 71
2020-01-16 23:00:00 6.1 6 Este 14 Este 0 911.2 0.2 72
2020-01-16 22:00:00 5.6 3 Sudeste 11 Este 0 910.8 0.2 76
2020-01-16 21:00:00 5.2 3 Sudeste 14 Nordeste 0 910.8 0.5 79
2020-01-16 20:00:00 4.4 2 Noroeste 14 Nordeste 0 911 0.7 81
2020-01-16 19:00:00 4.9 0 Calma 4 Noroeste 0 910.6 0.1 76
2020-01-16 18:00:00 7.3 0 Calma 10 Sudeste 0 910.3 -0.2 67
2020-01-16 17:00:00 9.6 5 Sudeste 20 Sudeste 0 910.3 -0.5 56
2020-01-16 16:00:00 10 9 Sudeste 21 Sudeste 0 910.5 -1.2 51
2020-01-16 15:00:00 9.5 6 Sudeste 21 Sudeste 0 910.5 -2.3 50
2020-01-16 14:00:00 11.2 3 Sudoeste 14 Nordeste 0 910.8 -2.5 48
2020-01-16 13:00:00 9.8 3 Oeste 13 Nordeste 0 911.7 -1.6 51
2020-01-16 12:00:00 8 2 Sudoeste 13 Norte 0 912.8 -0.6 59
2020-01-16 11:00:00 4 3 Oeste 15 Sudeste 0 913.3 0.1 74
2020-01-16 10:00:00 -1.6 2 Norte 16 Nordeste 0 913.3 0.4 93
2020-01-16 09:00:00 -1.7 4 Noroeste 19 Norte 0 913.4 0.8 90
2020-01-16 08:00:00 -1.8 4 Noroeste 21 Norte 0 913.2 0.8 92
2020-01-16 07:00:00 -1.9 0 Calma 15 Nordeste 0 912.9 0.4 93
2020-01-16 06:00:00 -1.6 3 Noroeste 15 Nordeste 0 912.6 0.1 93
2020-01-16 05:00:00 -1.4 3 Noroeste 14 Este 0 912.4 0.2 94
2020-01-16 04:00:00 -1.2 3 Norte 15 Este 0 912.5 0 91
2020-01-16 03:00:00 -1.1 0 Calma 14 Nordeste 0 912.5 0 92
2020-01-16 02:00:00 -1 3 Noroeste 14 Nordeste 0 912.2 0.3 91
2020-01-16 01:00:00 -0.6 3 Noroeste 14 Norte 0 912.5 1.4 90
2020-01-16 00:00:00 -0.7 2 Norte 15 Nordeste 0 912.5 1.3 92
2020-01-15 23:00:00 0 3 Noroeste 15 Nordeste 0 911.9 1.1 88
2020-01-15 22:00:00 1.1 2 Noroeste 12 Norte 0 911.1 0.8 83
2020-01-15 21:00:00 1.5 4 Noroeste 14 Nordeste 0 911.2 2 83
2020-01-15 20:00:00 1.5 4 Noroeste 13 Noroeste 0 910.8 2.5 79
2020-01-15 19:00:00 1.7 2 Noroeste 16 Nordeste 0 910.3 2.5 79
2020-01-15 18:00:00 2.7 5 Noroeste 11 Noroeste 0 909.2 1.6 75
2020-01-15 17:00:00 4.2 4 Norte 15 Noroeste 0 908.3 0.6 68
2020-01-15 16:00:00 6 5 Oeste 13 Noroeste 0 907.8 -0.3 59
2020-01-15 15:00:00 7.2 6 Noroeste 14 Sudoeste 0 907.6 -1.4 55
2020-01-15 14:00:00 10.7 5 Sur 14 Nordeste 0 907.7 -1.5 40
2020-01-15 13:00:00 10 2 Sudoeste 14 Nordeste 0 908.1 -0.5 38
2020-01-15 12:00:00 7.1 2 Sur 17 Oeste 0 909 0.9 44
2020-01-15 11:00:00 3 3 Noroeste 15 Nordeste 0 909.2 1.6 61
2020-01-15 10:00:00 -2.3 2 Este 16 Este 0 908.6 1.3 79
2020-01-15 09:00:00 -3.1 2 Norte 15 Nordeste 0 908.1 0.9 80
2020-01-15 08:00:00 -3 4 Norte 14 Nordeste 0 907.6 0.4 84
2020-01-15 07:00:00 -3.5 2 Norte 15 Este 0 907.3 0.2 81
2020-01-15 06:00:00 -3.5 3 Noroeste 16 Nordeste 0 907.2 -0.2 82
2020-01-15 05:00:00 -3.5 2 Nordeste 14 Nordeste 0 907.2 -0.2 82
2020-01-15 04:00:00 -3.2 2 Norte 15 Nordeste 0 907.1 -0.4 81
2020-01-15 03:00:00 -3 4 Noroeste 14 Este 0 907.4 -0.5 78
2020-01-15 02:00:00 -2.9 4 Noroeste 14 Nordeste 0 907.4 -0.3 79
2020-01-15 01:00:00 -2.3 5 Oeste 14 Este 0 907.5 -0.3 75
2020-01-15 00:00:00 -2.5 0 Calma 14 Nordeste 0 907.9 0.3 80
2020-01-14 23:00:00 -2.6 2 Norte 13 Nordeste 0 907.7 0.6 83
2020-01-14 22:00:00 -2.1 4 Noroeste 15 Nordeste 0 907.8 1.1 78
2020-01-14 21:00:00 -1.7 2 Noroeste 15 Nordeste 0 907.6 1.5 80
2020-01-14 20:00:00 -1.3 2 Norte 15 Este 0 907.1 1.5 79
2020-01-14 19:00:00 -0.5 0 Calma 16 Este 0 906.7 1.6 75
2020-01-14 18:00:00 1 3 Noroeste 14 Nordeste 0 906.1 1.2 69
2020-01-14 17:00:00 2.6 2 Noroeste 14 Este 0 905.6 0.4 62
2020-01-14 16:00:00 4.4 7 Noroeste 17 Norte 0 905.1 -0.5 49
2020-01-14 15:00:00 5.1 4 Noroeste 13 Norte 0 904.9 -1.3 49
2020-01-14 14:00:00 9.2 3 Oeste 22 Este 0 905.2 -1.1 39
2020-01-14 13:00:00 9.8 5 Sudeste 21 Este 0 905.6 -0.6 28
2020-01-14 12:00:00 8.2 6 Sudeste 14 Este 0 906.2 0.2 33
2020-01-14 11:00:00 5 0 Calma 16 Este 0 906.3 0.4 45
2020-01-14 10:00:00 -0.6 3 Noroeste 16 Nordeste 0 906.2 0.3 64
2020-01-14 09:00:00 -0.7 7 Noroeste 22 Norte 0 906 0.5 60
2020-01-14 08:00:00 -1.7 6 Noroeste 17 Norte 0 905.9 0.2 65
2020-01-14 07:00:00 -1.9 6 Noroeste 15 Nordeste 0 905.9 0.3 68
2020-01-14 06:00:00 -2 6 Noroeste 14 Noroeste 0 905.5 -0.4 69
2020-01-14 05:00:00 -2 5 Noroeste 15 Norte 0 905.7 -0.4 73
2020-01-14 04:00:00 -2.2 2 Norte 15 Nordeste 0 905.6 -1.3 76
2020-01-14 03:00:00 -1.8 3 Noroeste 16 Oeste 0 905.9 -1.2 74
2020-01-14 02:00:00 -1.5 3 Noroeste 17 Oeste 0 906.1 -0.9 77
2020-01-14 01:00:00 -1.3 4 Noroeste 14 Norte 0 906.9 0.1 72
2020-01-14 00:00:00 -1.5 3 Noroeste 14 Nordeste 0 907.1 0.2 76
2020-01-13 23:00:00 -1.3 3 Noroeste 15 Nordeste 0 907 0 75
2020-01-13 22:00:00 -0.7 3 Noroeste 14 Nordeste 0 906.8 0.2 74
2020-01-13 21:00:00 -0.4 3 Noroeste 14 Nordeste 0 906.9 0 75
2020-01-13 20:00:00 0.8 6 Noroeste 16 Noroeste 0 907 0.4 67
2020-01-13 19:00:00 1 4 Noroeste 13 Sudoeste 0 906.6 0.5 73
2020-01-13 18:00:00 3.1 2 Noroeste 9 Norte 0 906.9 0.7 67
2020-01-13 17:00:00 6.2 2 Sudeste 9 Noroeste 0 906.6 -0.4 56
2020-01-13 16:00:00 9.3 6 Este 14 Este 0 906.1 -1.8 29
2020-01-13 15:00:00 9.7 2 Noroeste 10 Sudeste 0 906.2 -2.8 40
2020-01-13 14:00:00 10.9 3 Sur 17 Sudoeste 0 907 -2.1 30
2020-01-13 13:00:00 9.3 3 Oeste 10 Este 0 907.9 -1.5 33
2020-01-13 12:00:00 7.1 3 Sudeste 16 Sudeste 0 909 -0.5 39
2020-01-13 11:00:00 3.2 3 Noroeste 16 Este 0 909.1 -0.4 48
2020-01-13 10:00:00 -1.6 3 Norte 16 Nordeste 0 909.4 -0.4 71
2020-01-13 09:00:00 -3.1 0 Calma 15 Nordeste 0 909.5 -0.3 73
2020-01-13 08:00:00 -2.7 5 Noroeste 15 Noroeste 0 909.5 -0.7 69
2020-01-13 07:00:00 -3.1 4 Noroeste 16 Nordeste 0 909.8 -1.1 75
2020-01-13 06:00:00 -3.1 3 Noroeste 17 Oeste 0 909.8 -1.6 75
2020-01-13 05:00:00 -2.5 5 Noroeste 15 Norte 0 910.2 -1.6 72
2020-01-13 04:00:00 -2.7 3 Norte 16 Nordeste 0 910.9 -1.5 73
2020-01-13 03:00:00 -2.2 3 Noroeste 15 Nordeste 0 911.4 -1.5 73
2020-01-13 02:00:00 -2.4 4 Noroeste 15 Nordeste 0 911.8 -1.5 72
2020-01-13 01:00:00 -2.2 3 Noroeste 16 Nordeste 0 912.4 -1.1 72
2020-01-13 00:00:00 -1.8 2 Norte 16 Nordeste 0 912.9 -1 71
2020-01-12 23:00:00 -1.5 4 Noroeste 17 Norte 0 913.3 -0.6 70
2020-01-12 22:00:00 -1 5 Noroeste 15 Norte 0 913.5 0.3 68
2020-01-12 21:00:00 -1.5 3 Noroeste 14 Nordeste 0 913.9 1.3 73
2020-01-12 20:00:00 -1.3 3 Noroeste 14 Nordeste 0 913.9 1.5 76
2020-01-12 19:00:00 -0.5 3 Noroeste 15 Nordeste 0 913.2 0.9 73
2020-01-12 18:00:00 1 2 Noroeste 17 Norte 0 912.6 0.8 68
2020-01-12 17:00:00 2.6 3 Noroeste 14 Noroeste 0 912.4 0.2 57
2020-01-12 16:00:00 3.2 6 Noroeste 12 Noroeste 0 912.3 -0.9 52
2020-01-12 15:00:00 4.3 6 Noroeste 11 Norte 0 911.8 -2 48
2020-01-12 14:00:00 8.1 5 Noroeste 8 Noroeste 0 912.2 -1.8 40
2020-01-12 13:00:00 9.1 3 Oeste 12 Norte 0 913.2 -0.2 33
2020-01-12 12:00:00 7 2 Oeste 14 Nordeste 0 913.8 0.7 36
2020-01-12 11:00:00 3.2 2 Sur 16 Nordeste 0 914 1 47
2020-01-12 10:00:00 -3.6 2 Noroeste 17 Este 0 913.4 0.6 72
2020-01-12 09:00:00 -4 2 Norte 15 Norte 0 913.1 0.7 70
2020-01-12 08:00:00 -3.5 3 Norte 17 Nordeste 0 913 0.5 69
2020-01-12 07:00:00 -3.6 3 Norte 17 Nordeste 0 912.8 -0.1 69
2020-01-12 06:00:00 -3.2 3 Noroeste 15 Norte 0 912.4 -0.8 67
2020-01-12 05:00:00 -2.8 5 Noroeste 15 Nordeste 0 912.5 -0.9 62
2020-01-12 04:00:00 -2.9 3 Norte 14 Este 0 912.9 -0.7 63
2020-01-12 03:00:00 -2.9 3 Noroeste 14 Nordeste 0 913.2 -0.6 64
2020-01-12 02:00:00 -2.8 4 Noroeste 14 Nordeste 0 913.4 -0.6 64
2020-01-12 01:00:00 -3.2 2 Norte 15 Nordeste 0 913.6 -0.4 72
2020-01-12 00:00:00 -2.9 3 Noroeste 16 Nordeste 0 913.8 0 70
2020-01-11 23:00:00 -2.6 4 Noroeste 16 Norte 0 914 0.4 68
2020-01-11 22:00:00 -2.3 2 Noroeste 16 Nordeste 0 914 0.8 65
2020-01-11 21:00:00 -2.1 4 Noroeste 15 Nordeste 0 913.8 1.1 69
2020-01-11 20:00:00 -1.7 4 Noroeste 16 Nordeste 0 913.6 1 70
2020-01-11 19:00:00 -1 4 Noroeste 7 Oeste 0 913.2 0.8 68
2020-01-11 18:00:00 0.8 2 Nordeste 16 Este 0 912.7 0.3 62
2020-01-11 17:00:00 2.3 4 Noroeste 14 Noroeste 0 912.6 0.1 51
2020-01-11 16:00:00 3.7 5 Norte 19 Oeste 0 912.4 -0.9 49
2020-01-11 15:00:00 5.2 4 Noroeste 13 Este 0 912.4 -1.6 41
2020-01-11 14:00:00 10 3 Noroeste 14 Este 0 912.5 -2.4 31
2020-01-11 13:00:00 10.7 3 Sudoeste 13 Nordeste 0 913.3 -1.5 27
2020-01-11 12:00:00 8.1 3 Oeste 15 Nordeste 0 914 -0.5 30
2020-01-11 11:00:00 4.4 4 Oeste 16 Norte 0 914.9 0.4 35
2020-01-11 10:00:00 -1 4 Noroeste 15 Noroeste 0 914.8 0.5 52
2020-01-11 09:00:00 0.1 7 Noroeste 22 Norte 0 914.5 0.2 44
2020-01-11 08:00:00 1.4 13 Noroeste 29 Noroeste 0 914.5 0.4 36
2020-01-11 07:00:00 2 13 Norte 32 Norte 0 914.3 0.1 32
2020-01-11 06:00:00 2.4 14 Norte 32 Norte 0 914.3 0.2 31
2020-01-11 05:00:00 2.6 15 Norte 35 Norte 0 914.1 0.3 32
2020-01-11 04:00:00 2.4 17 Norte 32 Norte 0 914.2 0.5 33
2020-01-11 03:00:00 2.3 10 Norte 28 Norte 0 914.1 0.7 36
2020-01-11 02:00:00 2.9 13 Norte 28 Norte 0 913.8 0.2 33
2020-01-11 01:00:00 3.2 11 Noroeste 27 Norte 0 913.7 0 35
2020-01-11 00:00:00 3.8 12 Noroeste 29 Noroeste 0 913.4 0.2 33
2020-01-10 23:00:00 4.1 13 Noroeste 44 Noroeste 0 913.6 1 35
2020-01-10 22:00:00 6.6 18 Noroeste 39 Noroeste 0 913.7 1.2 26
2020-01-10 21:00:00 6.9 19 Noroeste 39 Noroeste 0 913.2 1.3 28
2020-01-10 20:00:00 6.7 17 Noroeste 44 Noroeste 0 912.6 1.6 32
2020-01-10 19:00:00 6.3 16 Noroeste 41 Noroeste 0 912.5 1.6 40
2020-01-10 18:00:00 6.6 14 Noroeste 32 Noroeste 0 911.9 1.5 39
2020-01-10 17:00:00 7.2 14 Noroeste 33 Noroeste 0 911 0.8 40
2020-01-10 16:00:00 8 13 Noroeste 35 Noroeste 0 910.9 0.6 41
2020-01-10 15:00:00 8.3 18 Noroeste 38 Noroeste 0 910.4 -0.1 39
2020-01-10 14:00:00 9.5 19 Noroeste 40 Noroeste 0 910.2 -0.2 31
2020-01-10 13:00:00 9.6 17 Noroeste 37 Oeste 0 910.3 0.2 37
2020-01-10 12:00:00 9 15 Noroeste 37 Noroeste 0 910.5 0.7 41
2020-01-10 11:00:00 8.2 17 Noroeste 44 Noroeste 0 910.4 1.3 41
2020-01-10 10:00:00 6 15 Noroeste 35 Noroeste 0 910.1 1.4 45
2020-01-10 09:00:00 5 15 Noroeste 35 Noroeste 0 909.8 1.7 56
2020-01-10 08:00:00 5.2 12 Noroeste 30 Norte 0 909.1 1.2 58
2020-01-10 07:00:00 4.7 11 Norte 23 Norte 0 908.7 0.2 69
2020-01-10 06:00:00 4.6 9 Norte 25 Norte 0 908.1 -0.3 74
2020-01-10 05:00:00 4.4 14 Norte 29 Norte 0 907.9 0.1 83
2020-01-10 04:00:00 4.1 7 Noroeste 29 Noroeste 0.6 908.5 0.4 91
2020-01-10 03:00:00 3.8 10 Noroeste 22 Norte 0.4 908.4 -0.2 93
2020-01-10 02:00:00 3 3 Norte 14 Nordeste 0 907.8 -0.9 85
2020-01-10 01:00:00 2.8 3 Noroeste 12 Nordeste 0 908.1 -0.5 83
2020-01-10 00:00:00 4.2 4 Noroeste 8 Noroeste 0 908.6 -0.1 79
2020-01-09 23:00:00 4.7 3 Este 15 Norte 0 908.7 -0.2 75
2020-01-09 22:00:00 4 3 Noroeste 13 Nordeste 0 908.6 -1 80
2020-01-09 21:00:00 4.4 2 Noroeste 15 Nordeste 0 908.7 -0.8 77
2020-01-09 20:00:00 4.6 5 Noroeste 15 Noroeste 0 908.9 0.4 75
2020-01-09 19:00:00 5.5 8 Norte 17 Noroeste 0 909.6 1 71
2020-01-09 18:00:00 5.5 4 Nordeste 12 Noroeste 0 909.5 0.7 73
2020-01-09 17:00:00 5.8 7 Oeste 14 Noroeste 0 908.5 -1 70
2020-01-09 16:00:00 8.5 8 Noroeste 35 Sur 0 908.6 -1.8 56
2020-01-09 15:00:00 10.2 11 Sudeste 32 Sudeste 0 908.8 -2.5 46
2020-01-09 14:00:00 12.4 7 Sur 24 Sur 0 909.5 -2.6 40
2020-01-09 13:00:00 11.7 3 Sudeste 12 Este 0 910.4 -1.9 48
2020-01-09 12:00:00 9 2 Oeste 6 Oeste 0 911.3 -1.1 58
2020-01-09 11:00:00 4.9 3 Noroeste 14 Este 0 912.1 -0.3 78
2020-01-09 10:00:00 -0.4 0 Calma 14 Nordeste 0 912.3 -0.5 96
2020-01-09 09:00:00 -0.8 0 Calma 14 Nordeste 0 912.4 -0.7 96
2020-01-09 08:00:00 -0.7 2 Noroeste 14 Nordeste 0 912.4 -0.8 95
2020-01-09 07:00:00 -0.8 2 Noroeste 15 Nordeste 0 912.8 -1 95
2020-01-09 06:00:00 -0.6 3 Noroeste 8 Noroeste 0 913.1 -1.1 95
2020-01-09 05:00:00 -0.8 0 Calma 15 Nordeste 0 913.2 -1 95
2020-01-09 04:00:00 -0.5 3 Noroeste 14 Nordeste 0 913.8 -0.9 94
2020-01-09 03:00:00 -0.4 2 Norte 14 Nordeste 0 914.2 -0.9 94
2020-01-09 02:00:00 0 0 Calma 14 Nordeste 0 914.2 -1.1 92
2020-01-09 01:00:00 0 3 Noroeste 15 Nordeste 0 914.7 -0.8 93
2020-01-09 00:00:00 0.3 4 Noroeste 14 Nordeste 0 915.1 -0.5 92
2020-01-08 23:00:00 0.5 3 Noroeste 10 Noroeste 0 915.3 -0.2 91
2020-01-08 22:00:00 0.9 2 Noroeste 14 Nordeste 0 915.5 0.2 90
2020-01-08 21:00:00 1.1 2 Norte 14 Nordeste 0 915.6 0.4 89
2020-01-08 20:00:00 1.8 0 Calma 14 Nordeste 0 915.5 0.9 85
2020-01-08 19:00:00 2.7 2 Noroeste 13 Este 0 915.3 1.1 84
2020-01-08 18:00:00 3.9 4 Noroeste 14 Nordeste 0 915.2 1.2 79
2020-01-08 17:00:00 5.4 4 Noroeste 13 Norte 0 914.6 0.2 72
2020-01-08 16:00:00 6.6 6 Noroeste 13 Noroeste 0 914.2 -0.8 66
2020-01-08 15:00:00 7.6 4 Noroeste 14 Sudeste 0 914 -1.3 64
2020-01-08 14:00:00 13.2 6 Sur 21 Este 0 914.4 -0.8 35
2020-01-08 13:00:00 12.8 9 Sudeste 31 Este 0 915 0.3 35
2020-01-08 12:00:00 11.6 12 Sudeste 32 Sur 0 915.3 1.2 37
2020-01-08 11:00:00 8.7 3 Sudeste 13 Nordeste 0 915.2 1.5 59
2020-01-08 10:00:00 2.9 2 Nordeste 7 Noroeste 0 914.7 1.5 79
2020-01-08 09:00:00 3.1 0 Calma 14 Este 0 914.1 0.9 76
2020-01-08 08:00:00 3.5 2 Noroeste 14 Nordeste 0 913.7 0.8 69
2020-01-08 07:00:00 4 4 Noroeste 14 Noroeste 0 913.2 0.3 66
2020-01-08 06:00:00 5.1 4 Noroeste 18 Noroeste 0 913.2 0.1 61
2020-01-08 05:00:00 6.2 3 Sur 33 Norte 0 912.9 -0.1 56
2020-01-08 04:00:00 8.2 8 Noroeste 29 Norte 0 912.9 -0.2 47
2020-01-08 03:00:00 7.8 17 Noroeste 33 Noroeste 0 913.1 -0.3 50
2020-01-08 02:00:00 6.3 10 Noroeste 27 Noroeste 0 913 -0.5 57
2020-01-08 01:00:00 3 2 Sudeste 14 Nordeste 0 913.1 -0.5 74
2020-01-08 00:00:00 4.6 4 Noroeste 17 Noroeste 0 913.4 0 66
2020-01-07 23:00:00 4.8 3 Sudeste 17 Oeste 0 913.5 0 66
2020-01-07 22:00:00 5.3 5 Oeste 15 Noroeste 0 913.6 0.4 63
2020-01-07 21:00:00 5.7 3 Sur 16 Norte 0 913.4 0.5 62
2020-01-07 20:00:00 6.9 4 Noroeste 23 Noroeste 0 913.5 0.6 54
2020-01-07 19:00:00 7.3 10 Noroeste 30 Noroeste 0 913.2 0.4 51
2020-01-07 18:00:00 8.1 15 Noroeste 28 Noroeste 0 912.9 0.3 47
2020-01-07 17:00:00 4.4 2 Sur 15 Noroeste 0 912.9 0 67
2020-01-07 16:00:00 5.9 3 Noroeste 13 Noroeste 0 912.8 -1 61
2020-01-07 15:00:00 6.5 4 Noroeste 9 Noroeste 0 912.6 -1.9 61
2020-01-07 14:00:00 11.3 3 Noroeste 5 Oeste 0 912.9 -2.2 43
2020-01-07 13:00:00 11.4 3 Sudoeste 8 Este 0 913.8 -1.2 40
2020-01-07 12:00:00 10.1 3 Oeste 13 Norte 0 914.5 -0.1 45
2020-01-07 11:00:00 5.5 2 Oeste 5 Este 0 915.1 0.7 57
2020-01-07 10:00:00 0.1 0 Calma 14 Nordeste 0 915 0.7 75
2020-01-07 09:00:00 -0.4 2 Norte 16 Nordeste 0 914.6 0.3 75
2020-01-07 08:00:00 -0.5 5 Oeste 12 Nordeste 0 914.4 -0.1 70
2020-01-07 07:00:00 -1 4 Oeste 14 Este 0 914.3 -0.1 75
2020-01-07 06:00:00 -1.1 3 Noroeste 14 Nordeste 0 914.3 0.1 78
2020-01-07 05:00:00 -1.5 2 Norte 16 Nordeste 0 914.5 0.4 78
2020-01-07 04:00:00 -1 0 Calma 14 Nordeste 0 914.4 0.1 72
2020-01-07 03:00:00 -0.1 3 Norte 14 Nordeste 0 914.2 0.1 72
2020-01-07 02:00:00 -0.3 2 Norte 15 Nordeste 0 914.1 0.1 77
2020-01-07 01:00:00 -0.4 3 Norte 15 Norte 0 914.3 0.3 76
2020-01-07 00:00:00 0.3 6 Noroeste 16 Nordeste 0 914.1 0.3 71
2020-01-06 23:00:00 -0.7 4 Noroeste 15 Nordeste 0 914 0.5 81
2020-01-06 22:00:00 -0.6 4 Norte 15 Nordeste 0 914 0.8 84
2020-01-06 21:00:00 -0.4 3 Noroeste 14 Nordeste 0 913.8 1.3 81
2020-01-06 20:00:00 0 5 Noroeste 14 Nordeste 0 913.5 1.4 86
2020-01-06 19:00:00 0.7 2 Norte 14 Nordeste 0 913.2 1.3 82
2020-01-06 18:00:00 1.7 3 Noroeste 14 Nordeste 0 912.5 0.8 77
2020-01-06 17:00:00 2.9 2 Noroeste 9 Noroeste 0 912.1 0.3 69
2020-01-06 16:00:00 4.4 3 Noroeste 13 Norte 0 911.9 -0.6 63
2020-01-06 15:00:00 5.4 4 Noroeste 11 Noroeste 0 911.7 -1.6 61
2020-01-06 14:00:00 8.6 5 Noroeste 10 Norte 0 911.8 -1.8 48
2020-01-06 13:00:00 10.9 4 Sudeste 23 Este 0 912.5 -1.5 35
2020-01-06 12:00:00 8.8 3 Este 13 Nordeste 0 913.3 -0.5 42
2020-01-06 11:00:00 4.9 4 Oeste 13 Nordeste 0 913.6 0.4 57
2020-01-06 10:00:00 -1.6 0 Calma 15 Nordeste 0 914 0.8 83